createdAt,value
2017-07-18T00:02:26.443Z,14.50
2017-07-18T00:04:55.465Z,14.50
2017-07-18T00:07:23.262Z,14.50
2017-07-18T00:09:51.066Z,14.40
2017-07-18T00:12:21.319Z,14.30
2017-07-18T00:14:49.166Z,14.30
2017-07-18T00:17:17.669Z,14.20
2017-07-18T00:19:46.799Z,14.20
2017-07-18T00:22:15.374Z,14.10
2017-07-18T00:24:48.260Z,14.20
2017-07-18T00:27:17.727Z,14.20
2017-07-18T00:29:45.325Z,14.10
2017-07-18T00:33:03.357Z,14.00
2017-07-18T00:35:31.898Z,13.90
2017-07-18T00:38:00.543Z,13.90
2017-07-18T00:40:29.467Z,13.80
2017-07-18T00:42:57.914Z,13.80
2017-07-18T00:45:26.682Z,13.80
2017-07-18T00:47:54.349Z,13.70
2017-07-18T00:50:33.770Z,13.80
2017-07-18T00:53:02.581Z,13.80
2017-07-18T00:55:30.753Z,13.80
2017-07-18T00:57:59.055Z,13.70
2017-07-18T01:00:28.126Z,13.70
2017-07-18T01:03:01.230Z,13.60
2017-07-18T01:05:37.616Z,13.60
2017-07-18T01:08:07.419Z,13.60
2017-07-18T01:10:44.501Z,13.50
2017-07-18T01:13:19.982Z,13.40
2017-07-18T01:15:47.875Z,13.50
2017-07-18T01:18:21.001Z,13.50
2017-07-18T01:20:52.076Z,13.40
2017-07-18T01:26:04.355Z,13.30
2017-07-18T01:28:45.826Z,13.30
2017-07-18T01:31:27.566Z,13.30
2017-07-18T01:33:55.302Z,13.30
2017-07-18T01:39:06.582Z,13.20
2017-07-18T01:41:45.724Z,13.20
2017-07-18T01:44:43.712Z,13.20
2017-07-18T01:47:20.261Z,13.10
2017-07-18T01:50:26.214Z,13.10
2017-07-18T01:53:00.829Z,13.00
2017-07-18T01:55:32.132Z,13.00
2017-07-18T01:58:07.915Z,13.10
2017-07-18T02:03:36.128Z,13.10
2017-07-18T02:08:51.531Z,13.00
2017-07-18T02:14:21.575Z,13.00
2017-07-18T02:19:52.691Z,13.00
2017-07-18T02:28:08.172Z,12.90
2017-07-18T02:30:37.183Z,12.80
2017-07-18T02:36:21.208Z,12.80
2017-07-18T02:41:42.233Z,12.60
2017-07-18T02:44:37.500Z,12.60
2017-07-18T03:08:55.303Z,12.70
2017-07-18T03:12:08.378Z,12.70
2017-07-18T03:17:58.314Z,12.80
2017-07-18T03:27:37.547Z,12.80
2017-07-18T03:30:22.482Z,12.70
2017-07-18T03:36:46.099Z,12.60
2017-07-18T03:39:26.560Z,12.60
2017-07-18T03:45:04.761Z,12.60
2017-07-18T03:48:09.592Z,12.50
2017-07-18T03:57:35.259Z,12.50
2017-07-18T04:03:42.011Z,12.50
2017-07-18T04:09:59.283Z,12.50
2017-07-18T04:19:06.587Z,12.60
2017-07-18T04:21:50.937Z,12.90
2017-07-18T04:24:20.863Z,13.10
2017-07-18T04:26:51.472Z,13.20
2017-07-18T04:29:22.258Z,13.30
2017-07-18T04:31:56.407Z,13.30
2017-07-18T04:34:26.709Z,13.40
2017-07-18T04:36:55.985Z,13.50
2017-07-18T04:39:23.604Z,13.50
2017-07-18T04:41:52.014Z,13.50
2017-07-18T04:44:22.760Z,13.60
2017-07-18T04:47:17.849Z,13.60
2017-07-18T04:49:46.061Z,13.60
2017-07-18T04:52:14.418Z,13.70
2017-07-18T04:54:43.948Z,13.80
2017-07-18T04:57:12.444Z,13.90
2017-07-18T04:59:42.869Z,14.10
2017-07-18T05:02:10.440Z,14.20
2017-07-18T05:04:37.992Z,14.40
2017-07-18T05:07:06.948Z,14.40
2017-07-18T05:09:35.270Z,14.80
2017-07-18T05:12:02.812Z,14.80
2017-07-18T05:14:30.367Z,15.00
2017-07-18T05:16:58.672Z,15.30
2017-07-18T05:19:26.611Z,15.30
2017-07-18T05:21:54.946Z,15.50
2017-07-18T05:24:22.801Z,15.50
2017-07-18T05:26:50.527Z,15.50
2017-07-18T05:29:19.859Z,15.80
2017-07-18T05:31:48.214Z,15.70
2017-07-18T05:34:16.764Z,17.10
2017-07-18T05:36:44.504Z,17.10
2017-07-18T05:39:12.495Z,18.00
2017-07-18T05:41:40.039Z,19.00
2017-07-18T05:44:07.582Z,19.90
2017-07-18T05:46:35.928Z,21.70
2017-07-18T05:49:03.514Z,21.70
2017-07-18T05:51:38.195Z,22.50
2017-07-18T05:54:05.856Z,23.20
2017-07-18T05:56:33.657Z,23.90
2017-07-18T05:59:01.227Z,24.30
2017-07-18T06:01:28.788Z,24.80
2017-07-18T06:03:56.329Z,25.00
2017-07-18T06:06:23.902Z,25.20
2017-07-18T06:08:51.473Z,25.70
2017-07-18T06:11:19.032Z,26.30
2017-07-18T06:13:46.609Z,26.60
2017-07-18T06:16:14.158Z,26.80
2017-07-18T06:18:41.696Z,26.50
2017-07-18T06:21:10.238Z,26.10
2017-07-18T06:23:37.763Z,26.50
2017-07-18T06:26:05.375Z,26.60
2017-07-18T06:28:33.273Z,27.10
2017-07-18T06:31:00.836Z,27.20
2017-07-18T06:33:29.155Z,27.50
2017-07-18T06:35:58.357Z,27.60
2017-07-18T06:38:25.899Z,27.60
2017-07-18T06:40:53.483Z,27.30
2017-07-18T06:43:21.043Z,26.90
2017-07-18T06:45:48.589Z,26.50
2017-07-18T06:48:16.156Z,26.30
2017-07-18T06:50:43.703Z,26.10
2017-07-18T06:53:12.013Z,26.10
2017-07-18T06:55:39.591Z,26.10
2017-07-18T06:58:07.131Z,26.20
2017-07-18T07:00:34.673Z,25.80
2017-07-18T07:03:02.991Z,26.00
2017-07-18T07:05:30.595Z,25.90
2017-07-18T07:07:58.177Z,26.30
2017-07-18T07:10:26.550Z,26.40
2017-07-18T07:12:54.131Z,26.40
2017-07-18T07:15:22.452Z,26.00
2017-07-18T07:17:50.399Z,26.00
2017-07-18T07:20:18.000Z,26.50
2017-07-18T07:22:45.566Z,27.50
2017-07-18T07:25:13.207Z,27.70
2017-07-18T07:27:40.786Z,27.80
2017-07-18T07:30:08.398Z,28.00
2017-07-18T07:32:36.026Z,28.10
2017-07-18T07:35:03.598Z,28.50
2017-07-18T07:37:31.196Z,28.20
2017-07-18T07:39:59.814Z,28.50
2017-07-18T07:42:28.153Z,29.60
2017-07-18T07:44:55.732Z,29.60
2017-07-18T07:47:24.079Z,29.80
2017-07-18T07:49:51.622Z,30.30
2017-07-18T07:52:19.185Z,30.60
2017-07-18T07:54:46.793Z,30.90
2017-07-18T07:57:14.347Z,31.10
2017-07-18T07:59:41.912Z,31.10
2017-07-18T08:02:09.520Z,31.90
2017-07-18T08:04:37.852Z,32.10
2017-07-18T08:07:05.422Z,32.00
2017-07-18T08:09:33.028Z,32.60
2017-07-18T08:12:01.374Z,32.20
2017-07-18T08:14:28.910Z,32.20
2017-07-18T08:16:56.698Z,31.70
2017-07-18T08:19:24.246Z,31.70
2017-07-18T08:21:52.214Z,31.80
2017-07-18T08:24:25.972Z,32.20
2017-07-18T08:26:56.539Z,32.00
2017-07-18T08:29:26.195Z,31.90
2017-07-18T08:31:53.742Z,32.20
2017-07-18T08:34:24.153Z,32.70
2017-07-18T08:36:52.081Z,32.60
2017-07-18T08:39:21.404Z,32.50
2017-07-18T08:41:49.048Z,32.80
2017-07-18T08:44:20.578Z,33.00
2017-07-18T08:46:51.399Z,32.60
2017-07-18T08:49:20.418Z,32.60
2017-07-18T08:51:49.345Z,32.30
2017-07-18T08:54:20.683Z,32.10
2017-07-18T08:56:49.206Z,32.10
2017-07-18T08:59:16.834Z,32.00
2017-07-18T09:01:46.200Z,32.20
2017-07-18T09:04:13.852Z,32.70
2017-07-18T09:06:42.533Z,33.90
2017-07-18T09:09:10.114Z,34.60
2017-07-18T09:11:37.673Z,34.30
2017-07-18T09:14:05.966Z,34.00
2017-07-18T09:16:33.533Z,34.00
2017-07-18T09:19:01.091Z,34.50
2017-07-18T09:21:28.671Z,34.10
2017-07-18T09:23:58.031Z,33.70
2017-07-18T09:26:26.136Z,33.90
2017-07-18T09:28:56.095Z,34.20
2017-07-18T09:31:24.451Z,34.60
2017-07-18T09:33:52.066Z,34.60
2017-07-18T09:36:20.426Z,34.80
2017-07-18T09:38:47.975Z,34.70
2017-07-18T09:41:15.555Z,34.90
2017-07-18T09:43:43.141Z,35.00
2017-07-18T09:46:16.885Z,34.10
2017-07-18T09:48:47.470Z,34.20
2017-07-18T09:51:15.350Z,34.30
2017-07-18T09:53:43.733Z,33.70
2017-07-18T09:56:11.334Z,33.60
2017-07-18T09:58:39.659Z,33.70
2017-07-18T10:01:07.198Z,33.70
2017-07-18T10:03:35.737Z,33.80
2017-07-18T10:06:03.293Z,33.80
2017-07-18T10:08:30.839Z,33.80
2017-07-18T10:10:59.391Z,34.30
2017-07-18T10:13:26.946Z,34.70
2017-07-18T10:15:54.523Z,34.90
2017-07-18T10:18:22.247Z,35.50
2017-07-18T10:20:49.871Z,36.20
2017-07-18T10:23:17.456Z,35.80
2017-07-18T10:25:45.057Z,34.90
2017-07-18T10:28:13.631Z,36.40
2017-07-18T10:30:42.018Z,35.90
2017-07-18T10:33:10.370Z,35.80
2017-07-18T10:35:37.897Z,35.80
2017-07-18T10:38:06.178Z,36.70
2017-07-18T10:40:33.746Z,36.70
2017-07-18T10:43:01.322Z,36.90
2017-07-18T10:45:28.957Z,36.90
2017-07-18T10:47:57.335Z,37.30
2017-07-18T10:50:25.672Z,37.40
2017-07-18T10:52:53.208Z,37.30
2017-07-18T10:55:20.841Z,37.00
2017-07-18T10:57:49.156Z,37.20
2017-07-18T11:00:16.735Z,37.20
2017-07-18T11:02:44.466Z,36.80
2017-07-18T11:05:12.034Z,36.30
2017-07-18T11:07:39.605Z,36.30
2017-07-18T11:10:07.927Z,36.60
2017-07-18T11:12:35.471Z,36.50
2017-07-18T11:15:03.008Z,37.40
2017-07-18T11:17:30.590Z,38.10
2017-07-18T11:19:58.139Z,38.10
2017-07-18T11:22:25.686Z,38.00
2017-07-18T11:24:54.042Z,38.40
2017-07-18T11:27:21.595Z,38.50
2017-07-18T11:29:49.123Z,38.70
2017-07-18T11:32:17.458Z,37.80
2017-07-18T11:34:45.024Z,37.80
2017-07-18T11:37:13.769Z,37.20
2017-07-18T11:39:41.383Z,37.20
2017-07-18T11:42:09.200Z,38.20
2017-07-18T11:44:36.787Z,38.20
2017-07-18T11:47:04.360Z,38.20
2017-07-18T11:49:31.963Z,38.50
2017-07-18T11:51:59.566Z,38.20
2017-07-18T11:54:27.140Z,39.20
2017-07-18T11:56:54.701Z,39.80
2017-07-18T11:59:23.247Z,40.10
2017-07-18T12:01:50.818Z,40.40
2017-07-18T12:04:18.413Z,40.40
2017-07-18T12:06:45.970Z,39.60
2017-07-18T12:09:13.599Z,38.90
2017-07-18T12:11:41.160Z,38.60
2017-07-18T12:14:08.769Z,38.70
2017-07-18T12:16:36.330Z,38.40
2017-07-18T12:19:04.064Z,38.40
2017-07-18T12:21:32.506Z,39.50
2017-07-18T12:24:00.065Z,39.50
2017-07-18T12:26:27.648Z,40.00
2017-07-18T12:28:55.887Z,40.60
2017-07-18T12:31:23.680Z,41.20
2017-07-18T12:33:53.162Z,40.70
2017-07-18T12:36:21.589Z,40.60
2017-07-18T12:38:49.383Z,39.50
2017-07-18T12:41:16.946Z,38.80
2017-07-18T12:43:44.571Z,39.00
2017-07-18T12:46:12.124Z,39.10
2017-07-18T12:48:39.925Z,39.50
2017-07-18T12:51:07.506Z,39.70
2017-07-18T12:53:35.075Z,39.20
2017-07-18T12:56:02.653Z,38.80
2017-07-18T12:58:32.140Z,38.40
2017-07-18T13:00:59.715Z,39.50
2017-07-18T13:03:27.301Z,39.20
2017-07-18T13:05:54.880Z,38.90
2017-07-18T13:08:24.025Z,38.30
2017-07-18T13:10:52.385Z,38.30
2017-07-18T13:13:19.981Z,37.90
2017-07-18T13:15:47.535Z,38.10
2017-07-18T13:18:15.118Z,39.40
2017-07-18T13:20:42.936Z,39.90
2017-07-18T13:23:10.514Z,39.80
2017-07-18T13:25:38.082Z,39.90
2017-07-18T13:28:05.680Z,40.10
2017-07-18T13:30:33.249Z,39.90
2017-07-18T13:33:00.796Z,38.70
2017-07-18T13:35:28.366Z,38.80
2017-07-18T13:37:55.950Z,39.10
2017-07-18T13:40:23.502Z,39.30
2017-07-18T13:42:51.162Z,39.90
2017-07-18T13:45:18.728Z,40.30
2017-07-18T13:47:46.687Z,40.00
2017-07-18T13:50:14.339Z,39.70
2017-07-18T13:52:41.931Z,39.50
2017-07-18T13:55:09.491Z,39.20
2017-07-18T13:57:37.066Z,39.20
2017-07-18T14:00:04.610Z,38.80
2017-07-18T14:02:32.160Z,38.50
2017-07-18T14:04:59.725Z,38.60
2017-07-18T14:07:27.274Z,38.40
2017-07-18T14:09:54.846Z,38.60
2017-07-18T14:12:22.442Z,39.50
2017-07-18T14:14:50.010Z,39.10
2017-07-18T14:17:17.565Z,39.40
2017-07-18T14:19:45.163Z,38.90
2017-07-18T14:22:12.721Z,39.40
2017-07-18T14:24:40.283Z,39.80
2017-07-18T14:27:07.847Z,39.10
2017-07-18T14:29:35.395Z,39.00
2017-07-18T14:32:02.949Z,39.70
2017-07-18T14:34:30.727Z,39.80
2017-07-18T14:36:58.291Z,39.30
2017-07-18T14:39:25.860Z,39.50
2017-07-18T14:41:53.498Z,40.20
2017-07-18T14:44:21.066Z,40.30
2017-07-18T14:46:48.607Z,40.90
2017-07-18T14:49:16.185Z,40.80
2017-07-18T14:51:43.760Z,39.80
2017-07-18T14:54:14.857Z,38.70
2017-07-18T14:56:47.135Z,38.10
2017-07-18T14:59:16.518Z,37.70
2017-07-18T15:01:44.073Z,37.60
2017-07-18T15:04:11.653Z,37.20
2017-07-18T15:06:39.220Z,37.40
2017-07-18T15:09:06.777Z,37.70
2017-07-18T15:11:34.344Z,38.20
2017-07-18T15:14:01.870Z,37.70
2017-07-18T15:16:29.431Z,37.80
2017-07-18T15:18:56.988Z,37.70
2017-07-18T15:21:25.278Z,37.00
2017-07-18T15:23:52.803Z,36.90
2017-07-18T15:26:20.370Z,37.70
2017-07-18T15:28:47.926Z,37.90
2017-07-18T15:31:15.461Z,37.90
2017-07-18T15:33:43.068Z,38.10
2017-07-18T15:36:10.617Z,37.80
2017-07-18T15:38:38.178Z,37.40
2017-07-18T15:41:05.735Z,37.60
2017-07-18T15:43:33.308Z,38.20
2017-07-18T15:46:00.876Z,38.10
2017-07-18T15:48:28.457Z,38.10
2017-07-18T15:50:56.029Z,37.70
2017-07-18T15:53:24.341Z,36.50
2017-07-18T15:55:51.940Z,36.40
2017-07-18T15:58:19.507Z,36.80
2017-07-18T16:00:47.065Z,37.00
2017-07-18T16:03:15.613Z,37.10
2017-07-18T16:05:43.176Z,37.40
2017-07-18T16:08:10.705Z,37.30
2017-07-18T16:10:38.277Z,37.40
2017-07-18T16:13:05.827Z,37.60
2017-07-18T16:15:33.374Z,37.50
2017-07-18T16:18:00.946Z,37.60
2017-07-18T16:20:28.542Z,38.00
2017-07-18T16:22:56.135Z,37.90
2017-07-18T16:25:23.725Z,37.60
2017-07-18T16:27:51.268Z,37.50
2017-07-18T16:30:18.883Z,37.50
2017-07-18T16:32:46.489Z,37.10
2017-07-18T16:35:14.017Z,36.60
2017-07-18T16:37:41.525Z,36.50
2017-07-18T16:40:09.112Z,36.10
2017-07-18T16:42:36.643Z,35.60
2017-07-18T16:45:04.186Z,35.20
2017-07-18T16:47:31.747Z,34.60
2017-07-18T16:49:59.268Z,33.60
2017-07-18T16:52:26.815Z,33.30
2017-07-18T16:54:55.347Z,32.90
2017-07-18T16:57:22.890Z,32.50
2017-07-18T16:59:50.456Z,32.10
2017-07-18T17:02:18.017Z,31.70
2017-07-18T17:04:45.554Z,31.40
2017-07-18T17:07:13.080Z,31.20
2017-07-18T17:09:40.654Z,30.90
2017-07-18T17:12:08.180Z,30.70
2017-07-18T17:14:35.714Z,30.60
2017-07-18T17:17:03.288Z,30.30
2017-07-18T17:19:30.822Z,30.10
2017-07-18T17:21:58.362Z,30.00
2017-07-18T17:24:25.925Z,29.80
2017-07-18T17:26:53.456Z,29.40
2017-07-18T17:29:21.277Z,28.90
2017-07-18T17:31:49.627Z,28.40
2017-07-18T17:34:17.154Z,28.40
2017-07-18T17:36:44.687Z,27.90
2017-07-18T17:39:13.314Z,27.60
2017-07-18T17:41:40.872Z,27.40
2017-07-18T17:44:08.434Z,27.30
2017-07-18T17:46:36.021Z,27.30
2017-07-18T17:49:03.536Z,27.10
2017-07-18T17:51:32.854Z,26.90
2017-07-18T17:54:01.241Z,26.90
2017-07-18T17:56:28.823Z,26.90
2017-07-18T17:58:56.419Z,26.80
2017-07-18T18:01:23.975Z,26.80
2017-07-18T18:03:51.509Z,26.70
2017-07-18T18:06:19.412Z,26.70
2017-07-18T18:08:47.004Z,26.60
2017-07-18T18:11:14.543Z,26.50
2017-07-18T18:13:42.451Z,26.30
2017-07-18T18:16:10.104Z,26.10
2017-07-18T18:18:37.636Z,25.80
2017-07-18T18:21:06.129Z,25.50
2017-07-18T18:23:33.691Z,25.20
2017-07-18T18:26:01.298Z,24.90
2017-07-18T18:28:29.647Z,24.10
2017-07-18T18:30:57.234Z,24.00
2017-07-18T18:33:24.966Z,23.90
2017-07-18T18:35:52.563Z,23.80
2017-07-18T18:38:23.226Z,23.50
2017-07-18T18:40:50.846Z,23.30
2017-07-18T18:43:18.401Z,23.00
2017-07-18T18:45:45.977Z,22.80
2017-07-18T18:48:13.754Z,22.60
2017-07-18T18:50:41.299Z,22.40
2017-07-18T18:53:08.886Z,22.20
2017-07-18T18:55:36.507Z,22.10
2017-07-18T18:58:04.035Z,22.00
2017-07-18T19:00:32.359Z,21.80
2017-07-18T19:03:00.321Z,21.80
2017-07-18T19:05:28.881Z,21.60
2017-07-18T19:08:01.626Z,21.50
2017-07-18T19:10:29.889Z,21.50
2017-07-18T19:12:57.423Z,21.50
2017-07-18T19:15:25.839Z,21.40
2017-07-18T19:17:54.144Z,21.40
2017-07-18T19:20:22.994Z,21.30
2017-07-18T19:22:51.819Z,21.30
2017-07-18T19:25:19.516Z,21.30
2017-07-18T19:27:48.384Z,21.20
2017-07-18T19:30:16.026Z,21.20
2017-07-18T19:33:07.153Z,21.20
2017-07-18T19:35:34.694Z,21.10
2017-07-18T19:38:02.578Z,21.10
2017-07-18T19:40:31.888Z,21.10
2017-07-18T19:43:00.164Z,21.00
2017-07-18T19:45:27.929Z,21.00
2017-07-18T19:48:05.979Z,20.90
2017-07-18T19:50:33.603Z,20.80
2017-07-18T19:53:01.813Z,20.80
2017-07-18T19:55:34.055Z,20.80
2017-07-18T19:58:02.049Z,20.80
2017-07-18T20:00:30.765Z,20.70
2017-07-18T20:03:00.034Z,20.70
2017-07-18T20:05:27.864Z,20.60
2017-07-18T20:08:02.460Z,20.60
2017-07-18T20:10:30.403Z,20.50
2017-07-18T20:12:59.038Z,20.50
2017-07-18T20:15:26.899Z,20.40
2017-07-18T20:17:54.724Z,20.50
2017-07-18T20:20:22.520Z,20.50
2017-07-18T20:22:51.193Z,20.60
2017-07-18T20:25:19.037Z,20.60
2017-07-18T20:27:46.919Z,20.70
2017-07-18T20:30:14.671Z,20.60
2017-07-18T20:32:43.616Z,20.60
2017-07-18T20:35:11.916Z,20.70
2017-07-18T20:37:40.246Z,20.70
2017-07-18T20:40:07.804Z,20.70
2017-07-18T20:42:35.345Z,20.60
2017-07-18T20:45:02.895Z,20.70
2017-07-18T20:47:31.223Z,20.80
2017-07-18T20:49:58.799Z,20.80
2017-07-18T20:52:26.934Z,20.90
2017-07-18T20:54:54.554Z,20.90
2017-07-18T20:57:22.124Z,21.00
2017-07-18T20:59:49.643Z,21.10
2017-07-18T21:02:17.188Z,21.20
2017-07-18T21:04:45.476Z,21.40
2017-07-18T21:07:14.588Z,21.40
2017-07-18T21:09:42.167Z,21.40
2017-07-18T21:12:09.696Z,21.50
2017-07-18T21:14:37.980Z,21.40
2017-07-18T21:17:05.526Z,21.40
2017-07-18T21:19:34.202Z,21.40
2017-07-18T21:22:01.781Z,21.40
2017-07-18T21:24:30.168Z,21.30
2017-07-18T21:26:57.691Z,21.20
2017-07-18T21:29:25.477Z,21.10
2017-07-18T21:31:53.029Z,21.10
2017-07-18T21:34:20.570Z,21.00
2017-07-18T21:36:48.176Z,20.90
2017-07-18T21:39:15.811Z,20.80
2017-07-18T21:41:43.360Z,20.60
2017-07-18T21:44:10.940Z,20.50
2017-07-18T21:46:38.701Z,20.50
2017-07-18T21:49:06.297Z,20.40
2017-07-18T21:51:33.978Z,20.40
2017-07-18T21:54:01.726Z,20.30
2017-07-18T21:56:30.295Z,20.30
2017-07-18T21:58:57.853Z,20.20
2017-07-18T22:01:25.672Z,20.20
2017-07-18T22:03:54.524Z,20.20
2017-07-18T22:06:22.102Z,20.20
2017-07-18T22:08:49.694Z,20.30
2017-07-18T22:11:17.327Z,20.40
2017-07-18T22:13:45.133Z,20.50
2017-07-18T22:16:12.725Z,20.40
2017-07-18T22:18:40.502Z,20.50
2017-07-18T22:21:08.046Z,20.60
2017-07-18T22:23:35.644Z,20.60
2017-07-18T22:26:03.198Z,20.60
2017-07-18T22:28:30.977Z,20.50
2017-07-18T22:30:58.566Z,20.40
2017-07-18T22:33:26.519Z,20.10
2017-07-18T22:35:54.281Z,20.00
2017-07-18T22:38:22.717Z,19.80
2017-07-18T22:40:51.328Z,19.70
2017-07-18T22:43:20.011Z,19.40
2017-07-18T22:45:47.659Z,19.40
2017-07-18T22:48:27.109Z,19.10
2017-07-18T22:50:54.722Z,19.10
2017-07-18T22:53:23.045Z,19.10
2017-07-18T22:55:50.629Z,19.00
2017-07-18T22:58:19.016Z,18.90
2017-07-18T23:00:48.243Z,18.90
2017-07-18T23:03:15.790Z,18.90
2017-07-18T23:05:44.137Z,19.00
2017-07-18T23:08:12.565Z,19.00
2017-07-18T23:10:41.082Z,19.10
2017-07-18T23:13:08.682Z,19.20
2017-07-18T23:15:37.055Z,19.30
2017-07-18T23:18:04.615Z,19.50
2017-07-18T23:20:32.279Z,19.60
2017-07-18T23:22:59.840Z,19.70
2017-07-18T23:25:27.403Z,19.80
2017-07-18T23:27:54.994Z,19.80
2017-07-18T23:30:22.785Z,19.90
2017-07-18T23:32:50.348Z,19.90
2017-07-18T23:35:19.487Z,20.10
2017-07-18T23:37:47.038Z,20.10
2017-07-18T23:40:14.592Z,20.10
2017-07-18T23:42:42.165Z,20.10
2017-07-18T23:45:09.720Z,20.10
2017-07-18T23:47:37.515Z,20.00
2017-07-18T23:50:06.153Z,20.00
2017-07-18T23:52:34.495Z,19.90
2017-07-18T23:55:02.263Z,19.90
2017-07-18T23:57:30.824Z,19.80
2017-07-18T23:59:58.607Z,19.70
